createdAt,value
2022-10-15T00:02:23.267Z,93.83
2022-10-15T00:07:26.396Z,94.28
2022-10-15T00:12:29.567Z,94.50
2022-10-15T00:17:34.008Z,94.71
2022-10-15T00:22:37.304Z,94.64
2022-10-15T00:27:40.176Z,94.32
2022-10-15T00:32:42.954Z,94.30
2022-10-15T00:37:46.266Z,94.72
2022-10-15T00:42:48.966Z,94.96
2022-10-15T00:47:53.230Z,95.04
2022-10-15T00:53:04.875Z,95.06
2022-10-15T00:58:14.196Z,94.87
2022-10-15T01:03:16.969Z,94.87
2022-10-15T01:08:19.830Z,94.82
2022-10-15T01:13:46.206Z,95.03
2022-10-15T01:19:04.213Z,95.21
2022-10-15T01:24:13.095Z,95.12
2022-10-15T01:29:18.877Z,95.01
2022-10-15T01:34:26.528Z,95.35
2022-10-15T01:39:41.339Z,95.30
2022-10-15T01:44:53.996Z,95.43
2022-10-15T01:49:58.293Z,95.51
2022-10-15T01:55:02.501Z,95.51
2022-10-15T02:00:06.022Z,95.51
2022-10-15T02:05:23.213Z,95.68
2022-10-15T02:10:38.224Z,95.55
2022-10-15T02:15:43.755Z,95.80
2022-10-15T02:21:06.940Z,95.83
2022-10-15T02:26:12.368Z,95.97
2022-10-15T02:31:16.731Z,95.70
2022-10-15T02:36:20.053Z,95.55
2022-10-15T02:41:23.338Z,95.76
2022-10-15T02:46:26.184Z,95.74
2022-10-15T02:51:33.055Z,95.61
2022-10-15T02:56:36.025Z,95.83
2022-10-15T03:01:38.846Z,95.85
2022-10-15T03:06:41.672Z,95.87
2022-10-15T03:11:44.448Z,95.70
2022-10-15T03:16:47.822Z,95.75
2022-10-15T03:21:50.868Z,95.80
2022-10-15T03:26:53.754Z,96.00
2022-10-15T03:31:56.553Z,95.97
2022-10-15T03:36:59.221Z,95.74
2022-10-15T03:42:02.066Z,96.02
2022-10-15T03:47:04.965Z,96.07
2022-10-15T03:52:07.773Z,96.30
2022-10-15T03:57:10.619Z,95.87
2022-10-15T04:02:13.492Z,96.06
2022-10-15T04:07:16.096Z,96.06
2022-10-15T04:12:19.090Z,96.20
2022-10-15T04:17:21.993Z,96.20
2022-10-15T04:22:25.245Z,96.68
2022-10-15T04:27:28.643Z,96.66
2022-10-15T04:32:31.645Z,96.63
2022-10-15T04:37:35.145Z,96.58
2022-10-15T04:42:38.185Z,96.56
2022-10-15T04:47:41.296Z,96.59
2022-10-15T04:52:44.189Z,96.54
2022-10-15T04:57:47.470Z,96.95
2022-10-15T05:02:50.476Z,96.99
2022-10-15T05:07:53.482Z,97.33
2022-10-15T05:12:57.031Z,97.26
2022-10-15T05:18:00.643Z,97.28
2022-10-15T05:23:04.495Z,97.04
2022-10-15T05:28:07.273Z,97.44
2022-10-15T05:33:10.241Z,97.55
2022-10-15T05:38:13.030Z,97.79
2022-10-15T05:43:16.094Z,97.80
2022-10-15T05:48:18.806Z,97.93
2022-10-15T05:53:21.586Z,97.97
2022-10-15T05:58:26.061Z,98.09
2022-10-15T06:03:29.323Z,97.90
2022-10-15T06:08:32.290Z,98.20
2022-10-15T06:13:35.095Z,98.25
2022-10-15T06:18:41.070Z,98.47
2022-10-15T06:23:44.061Z,98.48
2022-10-15T06:28:51.383Z,98.73
2022-10-15T06:33:54.320Z,98.93
2022-10-15T06:38:57.126Z,99.07
2022-10-15T06:43:59.838Z,99.29
2022-10-15T06:49:02.795Z,99.31
2022-10-15T06:54:05.659Z,99.20
2022-10-15T06:59:08.495Z,99.49
2022-10-15T07:04:11.687Z,99.25
2022-10-15T07:09:14.586Z,99.09
2022-10-15T07:14:17.725Z,98.79
2022-10-15T07:19:21.042Z,98.87
2022-10-15T07:24:23.876Z,99.83
2022-10-15T07:29:26.478Z,96.09
2022-10-15T07:34:29.260Z,93.76
2022-10-15T07:39:31.978Z,92.76
2022-10-15T07:44:34.632Z,92.01
2022-10-15T07:49:37.540Z,91.15
2022-10-15T07:54:40.393Z,90.46
2022-10-15T07:59:43.450Z,89.79
2022-10-15T08:04:46.226Z,88.62
2022-10-15T08:09:48.956Z,87.73
2022-10-15T08:14:51.793Z,86.69
2022-10-15T08:19:55.703Z,86.61
2022-10-15T08:24:58.487Z,86.47
2022-10-15T08:30:02.358Z,85.46
2022-10-15T08:35:06.823Z,83.92
2022-10-15T08:40:10.460Z,82.21
2022-10-15T08:45:19.938Z,81.20
2022-10-15T08:50:34.900Z,79.43
2022-10-15T08:55:40.640Z,77.44
2022-10-15T09:00:54.610Z,75.68
2022-10-15T09:05:59.643Z,74.56
2022-10-15T09:11:47.564Z,72.12
2022-10-15T09:16:53.877Z,70.47
2022-10-15T09:21:57.770Z,70.08
2022-10-15T09:27:07.400Z,69.31
2022-10-15T09:32:42.981Z,67.47
2022-10-15T09:38:24.508Z,65.91
2022-10-15T09:43:35.475Z,64.65
2022-10-15T09:48:52.844Z,64.29
2022-10-15T09:54:01.625Z,63.76
2022-10-15T09:59:07.352Z,62.78
2022-10-15T10:04:13.858Z,62.79
2022-10-15T10:09:22.885Z,61.42
2022-10-15T10:14:29.545Z,59.09
2022-10-15T10:19:32.462Z,58.18
2022-10-15T10:24:35.099Z,57.46
2022-10-15T10:29:43.065Z,56.08
2022-10-15T10:34:51.514Z,55.87
2022-10-15T10:40:00.799Z,55.87
2022-10-15T10:45:23.695Z,55.88
2022-10-15T10:50:33.588Z,55.68
2022-10-15T10:55:39.263Z,56.50
2022-10-15T11:00:44.293Z,56.89
2022-10-15T11:05:48.566Z,57.49
2022-10-15T11:11:03.817Z,57.53
2022-10-15T11:16:38.230Z,57.39
2022-10-15T11:21:59.411Z,57.38
2022-10-15T11:27:36.449Z,57.64
2022-10-15T11:33:06.112Z,57.30
2022-10-15T11:38:25.831Z,57.49
2022-10-15T11:43:39.620Z,57.91
2022-10-15T11:49:01.547Z,58.17
2022-10-15T11:54:05.072Z,57.25
2022-10-15T11:59:23.837Z,57.11
2022-10-15T12:04:43.601Z,55.75
2022-10-15T12:09:50.198Z,55.55
2022-10-15T12:14:57.636Z,55.29
2022-10-15T12:20:15.945Z,55.04
2022-10-15T12:25:34.377Z,54.92
2022-10-15T12:30:37.842Z,54.98
2022-10-15T12:35:40.759Z,54.56
2022-10-15T12:40:43.736Z,54.65
2022-10-15T12:45:58.016Z,54.73
2022-10-15T12:51:22.532Z,54.64
2022-10-15T12:56:35.747Z,54.58
2022-10-15T13:01:44.848Z,54.81
2022-10-15T13:06:47.796Z,54.42
2022-10-15T13:11:54.862Z,54.37
2022-10-15T13:16:58.607Z,54.29
2022-10-15T13:22:03.511Z,54.42
2022-10-15T13:27:22.106Z,54.21
2022-10-15T13:32:26.825Z,54.58
2022-10-15T13:37:32.784Z,54.74
2022-10-15T13:42:36.009Z,54.24
2022-10-15T13:47:42.694Z,54.11
2022-10-15T13:52:52.473Z,54.00
2022-10-15T13:58:05.613Z,54.27
2022-10-15T14:03:19.403Z,54.35
2022-10-15T14:08:28.333Z,54.76
2022-10-15T14:13:31.155Z,54.36
2022-10-15T14:18:37.732Z,54.85
2022-10-15T14:23:41.399Z,54.94
2022-10-15T14:28:51.668Z,55.08
2022-10-15T14:33:54.520Z,55.57
2022-10-15T14:39:25.362Z,55.91
2022-10-15T14:44:48.161Z,56.18
2022-10-15T14:49:54.434Z,56.00
2022-10-15T14:55:10.534Z,56.29
2022-10-15T15:00:33.498Z,57.56
2022-10-15T15:05:46.906Z,59.62
2022-10-15T15:10:51.004Z,60.52
2022-10-15T15:15:54.389Z,60.39
2022-10-15T15:21:01.788Z,60.86
2022-10-15T15:26:04.727Z,60.94
2022-10-15T15:31:13.944Z,61.35
2022-10-15T15:36:20.792Z,60.90
2022-10-15T15:41:26.476Z,61.02
2022-10-15T15:46:29.244Z,61.74
2022-10-15T15:51:32.719Z,62.73
2022-10-15T15:56:35.598Z,62.96
2022-10-15T16:01:38.447Z,63.73
2022-10-15T16:06:42.478Z,64.47
2022-10-15T16:11:45.418Z,65.04
2022-10-15T16:16:48.411Z,65.82
2022-10-15T16:21:51.283Z,66.24
2022-10-15T16:26:54.060Z,67.14
2022-10-15T16:31:56.690Z,67.92
2022-10-15T16:36:59.576Z,68.59
2022-10-15T16:42:02.620Z,69.11
2022-10-15T16:47:05.531Z,69.41
2022-10-15T16:52:08.946Z,69.94
2022-10-15T16:57:11.678Z,69.97
2022-10-15T17:02:14.710Z,70.51
2022-10-15T17:07:17.434Z,71.10
2022-10-15T17:12:20.375Z,71.41
2022-10-15T17:17:23.245Z,71.55
2022-10-15T17:22:26.493Z,72.00
2022-10-15T17:27:29.524Z,72.33
2022-10-15T17:32:33.657Z,72.60
2022-10-15T17:37:36.466Z,72.94
2022-10-15T17:42:42.936Z,73.20
2022-10-15T17:47:45.841Z,73.24
2022-10-15T17:52:48.665Z,73.31
2022-10-15T17:57:51.432Z,73.86
2022-10-15T18:02:54.456Z,73.99
2022-10-15T18:07:57.300Z,73.95
2022-10-15T18:13:00.247Z,74.45
2022-10-15T18:18:03.180Z,74.42
2022-10-15T18:23:06.102Z,74.75
2022-10-15T18:28:09.167Z,75.14
2022-10-15T18:33:12.219Z,75.33
2022-10-15T18:38:16.362Z,75.44
2022-10-15T18:43:19.657Z,75.89
2022-10-15T18:48:22.552Z,75.90
2022-10-15T18:53:26.171Z,76.01
2022-10-15T18:58:28.979Z,76.15
2022-10-15T19:03:32.043Z,76.17
2022-10-15T19:08:34.862Z,76.29
2022-10-15T19:13:37.700Z,75.89
2022-10-15T19:18:40.846Z,75.62
2022-10-15T19:23:43.802Z,75.92
2022-10-15T19:28:47.207Z,76.11
2022-10-15T19:33:54.785Z,76.60
2022-10-15T19:39:01.391Z,76.78
2022-10-15T19:44:05.102Z,76.82
2022-10-15T19:49:10.391Z,77.04
2022-10-15T19:54:13.035Z,77.13
2022-10-15T19:59:17.116Z,77.20
2022-10-15T20:04:19.949Z,77.29
2022-10-15T20:09:22.795Z,77.58
2022-10-15T20:14:27.138Z,77.76
2022-10-15T20:19:29.924Z,78.02
2022-10-15T20:24:32.788Z,78.32
2022-10-15T20:29:35.645Z,78.67
2022-10-15T20:34:38.495Z,78.96
2022-10-15T20:39:41.353Z,79.08
2022-10-15T20:44:44.237Z,79.25
2022-10-15T20:49:50.643Z,79.38
2022-10-15T20:54:54.768Z,79.42
2022-10-15T20:59:57.575Z,79.71
2022-10-15T21:05:00.435Z,80.03
2022-10-15T21:10:04.707Z,79.97
2022-10-15T21:15:07.911Z,80.05
2022-10-15T21:20:10.871Z,80.04
2022-10-15T21:25:13.832Z,80.14
2022-10-15T21:30:16.762Z,80.20
2022-10-15T21:35:20.128Z,80.26
2022-10-15T21:40:23.025Z,80.53
2022-10-15T21:45:25.919Z,80.69
2022-10-15T21:50:30.813Z,80.85
2022-10-15T21:55:34.072Z,81.20
2022-10-15T22:00:36.857Z,81.28
2022-10-15T22:05:39.906Z,81.28
2022-10-15T22:10:42.751Z,81.22
2022-10-15T22:15:45.554Z,81.23
2022-10-15T22:20:48.402Z,81.49
2022-10-15T22:25:58.980Z,81.37
2022-10-15T22:31:04.082Z,81.37
2022-10-15T22:36:13.436Z,81.68
2022-10-15T22:41:16.509Z,81.84
2022-10-15T22:46:19.545Z,82.19
2022-10-15T22:51:22.471Z,82.34
2022-10-15T22:56:26.311Z,82.10
2022-10-15T23:01:31.355Z,82.28
2022-10-15T23:06:36.499Z,82.47
2022-10-15T23:11:40.398Z,82.50
2022-10-15T23:16:45.380Z,82.41
2022-10-15T23:21:52.801Z,82.37
2022-10-15T23:26:55.456Z,82.58
2022-10-15T23:31:58.297Z,83.07
2022-10-15T23:37:01.625Z,82.82
2022-10-15T23:42:04.757Z,83.01
2022-10-15T23:47:07.615Z,83.26
2022-10-15T23:52:10.648Z,83.27
2022-10-15T23:57:13.486Z,83.32
